createdAt,value
2018-05-11T00:00:55.221Z,13.26
2018-05-11T00:03:22.952Z,13.36
2018-05-11T00:05:50.642Z,13.35
2018-05-11T00:08:18.381Z,13.42
2018-05-11T00:10:46.197Z,13.55
2018-05-11T00:13:13.873Z,13.59
2018-05-11T00:15:41.565Z,13.56
2018-05-11T00:18:09.205Z,13.58
2018-05-11T00:20:36.856Z,13.60
2018-05-11T00:23:04.534Z,13.33
2018-05-11T00:25:32.174Z,13.25
2018-05-11T00:27:59.817Z,13.15
2018-05-11T00:30:27.584Z,13.14
2018-05-11T00:32:55.232Z,13.12
2018-05-11T00:35:22.886Z,13.06
2018-05-11T00:37:50.562Z,13.04
2018-05-11T00:40:18.185Z,12.77
2018-05-11T00:42:45.886Z,12.77
2018-05-11T00:45:13.545Z,12.73
2018-05-11T00:47:41.193Z,12.84
2018-05-11T00:50:08.952Z,12.91
2018-05-11T00:52:36.647Z,12.98
2018-05-11T00:55:15.929Z,12.67
2018-05-11T00:57:43.613Z,12.63
2018-05-11T01:00:11.291Z,12.56
2018-05-11T01:02:39.029Z,12.43
2018-05-11T01:05:06.753Z,12.41
2018-05-11T01:07:34.388Z,12.40
2018-05-11T01:10:02.195Z,12.28
2018-05-11T01:12:29.828Z,12.22
2018-05-11T01:14:57.585Z,12.31
2018-05-11T01:17:25.258Z,12.37
2018-05-11T01:19:52.900Z,12.37
2018-05-11T01:22:20.506Z,12.42
2018-05-11T01:24:48.167Z,12.28
2018-05-11T01:27:15.797Z,12.23
2018-05-11T01:29:43.420Z,12.16
2018-05-11T01:32:11.074Z,12.16
2018-05-11T01:34:38.700Z,12.30
2018-05-11T01:37:06.513Z,12.26
2018-05-11T01:39:34.224Z,12.27
2018-05-11T01:42:01.890Z,12.28
2018-05-11T01:44:29.492Z,12.19
2018-05-11T01:46:57.148Z,12.18
2018-05-11T01:49:24.762Z,12.13
2018-05-11T01:51:52.438Z,12.02
2018-05-11T01:54:20.146Z,11.95
2018-05-11T01:56:47.869Z,11.85
2018-05-11T01:59:15.683Z,11.87
2018-05-11T02:01:43.385Z,11.99
2018-05-11T02:04:10.994Z,11.98
2018-05-11T02:06:38.906Z,12.05
2018-05-11T02:09:06.549Z,11.98
2018-05-11T02:11:34.316Z,11.96
2018-05-11T02:14:01.954Z,11.90
2018-05-11T02:16:29.677Z,11.97
2018-05-11T02:18:57.360Z,12.00
2018-05-11T02:21:25.156Z,11.89
2018-05-11T02:23:52.841Z,11.95
2018-05-11T02:26:20.535Z,11.89
2018-05-11T02:28:48.233Z,11.95
2018-05-11T02:31:15.903Z,11.90
2018-05-11T02:33:43.594Z,11.79
2018-05-11T02:36:11.294Z,11.69
2018-05-11T02:38:39.010Z,11.69
2018-05-11T02:41:06.673Z,11.54
2018-05-11T02:43:34.418Z,11.78
2018-05-11T02:46:02.029Z,11.96
2018-05-11T02:48:29.793Z,11.77
2018-05-11T02:50:57.401Z,11.58
2018-05-11T02:53:25.109Z,11.59
2018-05-11T02:55:52.741Z,11.69
2018-05-11T02:58:20.397Z,11.91
2018-05-11T03:00:48.048Z,12.02
2018-05-11T03:03:15.717Z,11.99
2018-05-11T03:05:43.326Z,11.93
2018-05-11T03:08:10.948Z,11.87
2018-05-11T03:10:38.581Z,11.87
2018-05-11T03:13:06.208Z,11.97
2018-05-11T03:15:33.856Z,12.00
2018-05-11T03:18:01.460Z,11.87
2018-05-11T03:20:29.120Z,11.75
2018-05-11T03:22:56.858Z,11.80
2018-05-11T03:25:24.531Z,11.74
2018-05-11T03:27:52.329Z,11.55
2018-05-11T03:30:19.988Z,11.30
2018-05-11T03:32:47.591Z,11.17
2018-05-11T03:35:15.370Z,10.93
2018-05-11T03:37:43.038Z,10.84
2018-05-11T03:40:10.673Z,10.72
2018-05-11T03:42:38.326Z,10.62
2018-05-11T03:45:05.966Z,10.50
2018-05-11T03:47:33.720Z,10.39
2018-05-11T03:50:01.357Z,10.52
2018-05-11T03:52:29.021Z,10.70
2018-05-11T03:54:56.704Z,10.83
2018-05-11T03:57:24.373Z,10.87
2018-05-11T03:59:52.100Z,10.75
2018-05-11T04:02:31.222Z,10.69
2018-05-11T04:05:10.478Z,10.47
2018-05-11T04:07:49.748Z,10.38
2018-05-11T04:10:17.535Z,10.54
2018-05-11T04:12:45.419Z,10.78
2018-05-11T04:15:15.087Z,10.98
2018-05-11T04:17:42.845Z,11.09
2018-05-11T04:20:10.505Z,11.07
2018-05-11T04:22:38.218Z,11.04
2018-05-11T04:25:05.824Z,10.86
2018-05-11T04:27:33.594Z,10.91
2018-05-11T04:30:01.318Z,10.96
2018-05-11T04:32:29.067Z,11.17
2018-05-11T04:34:56.718Z,11.25
2018-05-11T04:37:24.424Z,11.22
2018-05-11T04:39:52.080Z,11.39
2018-05-11T04:42:19.841Z,11.47
2018-05-11T04:44:47.480Z,11.55
2018-05-11T04:47:15.309Z,11.61
2018-05-11T04:49:43.047Z,11.63
2018-05-11T04:52:10.679Z,11.49
2018-05-11T04:54:38.360Z,11.54
2018-05-11T04:57:06.056Z,11.72
2018-05-11T04:59:33.710Z,11.81
2018-05-11T05:02:01.339Z,11.91
2018-05-11T05:04:29.044Z,11.71
2018-05-11T05:06:56.772Z,11.68
2018-05-11T05:09:24.526Z,11.31
2018-05-11T05:11:52.153Z,10.93
2018-05-11T05:14:19.847Z,10.91
2018-05-11T05:16:47.496Z,10.74
2018-05-11T05:19:15.202Z,10.56
2018-05-11T05:21:42.824Z,10.76
2018-05-11T05:24:10.436Z,10.77
2018-05-11T05:26:38.112Z,10.83
2018-05-11T05:29:05.756Z,10.88
2018-05-11T05:31:33.407Z,10.92
2018-05-11T05:34:01.013Z,10.94
2018-05-11T05:36:28.680Z,10.87
2018-05-11T05:38:56.281Z,10.80
2018-05-11T05:41:23.959Z,10.86
2018-05-11T05:43:51.671Z,10.90
2018-05-11T05:46:19.318Z,10.88
2018-05-11T05:48:46.950Z,11.15
2018-05-11T05:51:14.598Z,11.23
2018-05-11T05:53:42.225Z,11.26
2018-05-11T05:56:10.200Z,11.50
2018-05-11T05:58:37.882Z,11.63
2018-05-11T06:01:05.666Z,11.72
2018-05-11T06:03:33.351Z,11.77
2018-05-11T06:06:01.123Z,11.83
2018-05-11T06:08:28.806Z,11.90
2018-05-11T06:10:56.673Z,11.91
2018-05-11T06:13:24.221Z,11.96
2018-05-11T06:15:51.841Z,11.87
2018-05-11T06:18:19.557Z,11.93
2018-05-11T06:20:47.482Z,12.06
2018-05-11T06:23:15.477Z,12.04
2018-05-11T06:25:43.412Z,12.24
2018-05-11T06:28:11.129Z,12.18
2018-05-11T06:30:38.864Z,12.35
2018-05-11T06:33:07.453Z,12.33
2018-05-11T06:35:35.165Z,12.57
2018-05-11T06:38:03.235Z,12.59
2018-05-11T06:40:30.918Z,12.63
2018-05-11T06:42:58.900Z,12.61
2018-05-11T06:45:26.713Z,12.67
2018-05-11T06:47:54.360Z,12.38
2018-05-11T06:50:22.098Z,12.49
2018-05-11T06:52:49.821Z,12.56
2018-05-11T06:55:17.539Z,12.65
2018-05-11T06:57:45.262Z,12.80
2018-05-11T07:00:12.957Z,12.92
2018-05-11T07:02:40.819Z,12.98
2018-05-11T07:05:08.542Z,12.84
2018-05-11T07:07:36.334Z,13.00
2018-05-11T07:10:04.541Z,13.06
2018-05-11T07:12:32.152Z,13.14
2018-05-11T07:15:00.094Z,13.18
2018-05-11T07:17:28.046Z,13.33
2018-05-11T07:19:55.800Z,13.38
2018-05-11T07:22:23.437Z,13.31
2018-05-11T07:24:51.971Z,13.42
2018-05-11T07:27:20.384Z,13.32
2018-05-11T07:29:48.460Z,13.46
2018-05-11T07:32:18.290Z,13.52
2018-05-11T07:34:45.937Z,13.36
2018-05-11T07:37:13.650Z,13.47
2018-05-11T07:39:41.297Z,13.57
2018-05-11T07:42:08.964Z,13.62
2018-05-11T07:44:36.789Z,13.83
2018-05-11T07:47:04.427Z,13.98
2018-05-11T07:49:32.039Z,14.19
2018-05-11T07:51:59.689Z,14.30
2018-05-11T07:54:27.317Z,14.43
2018-05-11T07:56:54.960Z,14.46
2018-05-11T07:59:23.080Z,14.35
2018-05-11T08:01:50.741Z,14.44
2018-05-11T08:04:18.369Z,14.59
2018-05-11T08:06:46.021Z,14.55
2018-05-11T08:09:13.664Z,14.52
2018-05-11T08:11:41.318Z,14.60
2018-05-11T08:14:08.985Z,14.77
2018-05-11T08:16:37.081Z,14.88
2018-05-11T08:19:04.703Z,15.00
2018-05-11T08:21:32.333Z,14.98
2018-05-11T08:23:59.984Z,14.86
2018-05-11T08:26:27.821Z,14.96
2018-05-11T08:28:55.440Z,15.09
2018-05-11T08:31:23.104Z,14.89
2018-05-11T08:33:50.774Z,14.92
2018-05-11T08:36:18.517Z,15.00
2018-05-11T08:38:46.173Z,15.00
2018-05-11T08:41:13.872Z,15.22
2018-05-11T08:43:41.555Z,15.48
2018-05-11T08:46:09.273Z,15.78
2018-05-11T08:48:36.990Z,16.00
2018-05-11T08:51:04.697Z,16.14
2018-05-11T08:53:32.352Z,16.05
2018-05-11T08:56:00.000Z,15.90
2018-05-11T08:58:27.674Z,15.91
2018-05-11T09:00:55.332Z,15.88
2018-05-11T09:03:23.117Z,16.04
2018-05-11T09:05:50.783Z,16.35
2018-05-11T09:08:18.485Z,16.40
2018-05-11T09:10:46.085Z,16.24
2018-05-11T09:13:13.740Z,16.34
2018-05-11T09:15:41.349Z,16.37
2018-05-11T09:18:09.069Z,16.30
2018-05-11T09:20:36.719Z,16.12
2018-05-11T09:23:04.393Z,16.36
2018-05-11T09:25:32.045Z,16.49
2018-05-11T09:27:59.812Z,16.76
2018-05-11T09:30:27.441Z,17.03
2018-05-11T09:32:55.217Z,17.12
2018-05-11T09:35:22.874Z,17.04
2018-05-11T09:37:50.538Z,17.07
2018-05-11T09:40:18.216Z,16.98
2018-05-11T09:42:45.864Z,17.01
2018-05-11T09:45:13.667Z,17.31
2018-05-11T09:47:41.297Z,17.23
2018-05-11T09:50:08.982Z,17.02
2018-05-11T09:52:36.677Z,16.81
2018-05-11T09:55:04.577Z,16.88
2018-05-11T09:57:32.173Z,16.69
2018-05-11T09:59:59.862Z,16.85
2018-05-11T10:02:27.473Z,17.03
2018-05-11T10:04:55.137Z,17.24
2018-05-11T10:07:22.801Z,16.95
2018-05-11T10:09:50.505Z,17.19
2018-05-11T10:12:18.160Z,17.42
2018-05-11T10:14:45.817Z,17.56
2018-05-11T10:17:13.416Z,17.32
2018-05-11T10:19:41.085Z,17.75
2018-05-11T10:22:08.692Z,17.83
2018-05-11T10:24:36.325Z,18.03
2018-05-11T10:27:04.107Z,17.97
2018-05-11T10:29:31.727Z,18.41
2018-05-11T10:31:59.375Z,18.42
2018-05-11T10:34:27.089Z,18.55
2018-05-11T10:36:54.669Z,18.85
2018-05-11T10:39:22.977Z,19.12
2018-05-11T10:41:51.068Z,19.46
2018-05-11T10:44:19.824Z,19.98
2018-05-11T10:46:47.512Z,20.48
2018-05-11T10:49:19.256Z,20.71
2018-05-11T10:51:46.968Z,20.52
2018-05-11T10:54:14.572Z,20.66
2018-05-11T10:56:42.217Z,20.74
2018-05-11T10:59:09.921Z,20.96
2018-05-11T11:01:37.620Z,20.90
2018-05-11T11:04:05.238Z,20.98
2018-05-11T11:06:32.908Z,21.36
2018-05-11T11:09:00.536Z,21.46
2018-05-11T11:11:28.253Z,21.66
2018-05-11T11:13:56.481Z,21.23
2018-05-11T11:16:24.125Z,21.50
2018-05-11T11:18:51.752Z,21.28
2018-05-11T11:21:19.375Z,21.31
2018-05-11T11:23:46.993Z,21.17
2018-05-11T11:26:14.606Z,20.62
2018-05-11T11:28:42.257Z,20.73
2018-05-11T11:31:09.876Z,20.95
2018-05-11T11:33:37.561Z,20.68
2018-05-11T11:36:05.165Z,20.66
2018-05-11T11:38:33.230Z,20.64
2018-05-11T11:41:00.891Z,20.45
2018-05-11T11:43:28.557Z,20.72
2018-05-11T11:45:56.229Z,21.39
2018-05-11T11:48:23.908Z,21.69
2018-05-11T11:50:51.525Z,22.23
2018-05-11T11:55:47.313Z,22.58
2018-05-11T11:58:14.973Z,22.67
2018-05-11T12:00:42.589Z,22.89
2018-05-11T12:03:10.235Z,22.99
2018-05-11T12:05:37.836Z,23.16
2018-05-11T12:08:05.613Z,22.84
2018-05-11T12:10:33.367Z,23.06
2018-05-11T12:13:00.954Z,23.04
2018-05-11T12:15:28.596Z,22.89
2018-05-11T12:17:56.264Z,22.75
2018-05-11T12:20:23.950Z,22.88
2018-05-11T12:22:51.554Z,23.48
2018-05-11T12:25:19.204Z,23.66
2018-05-11T12:27:46.813Z,23.40
2018-05-11T12:30:14.480Z,22.84
2018-05-11T12:32:42.197Z,22.10
2018-05-11T12:35:09.849Z,21.73
2018-05-11T12:37:37.473Z,22.55
2018-05-11T12:40:05.170Z,23.40
2018-05-11T12:42:32.793Z,23.67
2018-05-11T12:45:00.494Z,24.50
2018-05-11T12:47:28.084Z,24.27
2018-05-11T12:49:55.735Z,23.68
2018-05-11T12:52:23.359Z,23.86
2018-05-11T12:54:51.012Z,23.08
2018-05-11T12:57:18.717Z,22.78
2018-05-11T12:59:46.240Z,22.53
2018-05-11T13:02:13.898Z,22.51
2018-05-11T13:04:41.513Z,22.15
2018-05-11T13:07:09.259Z,21.96
2018-05-11T13:09:36.945Z,22.24
2018-05-11T13:12:04.591Z,23.07
2018-05-11T13:14:32.197Z,23.65
2018-05-11T13:16:59.984Z,24.18
2018-05-11T13:19:27.580Z,24.23
2018-05-11T13:21:55.311Z,24.34
2018-05-11T13:24:22.982Z,23.71
2018-05-11T13:26:50.649Z,24.42
2018-05-11T13:29:18.262Z,24.25
2018-05-11T13:31:46.206Z,23.65
2018-05-11T13:34:13.892Z,23.73
2018-05-11T13:36:41.669Z,23.35
2018-05-11T13:39:09.304Z,23.30
2018-05-11T13:41:36.965Z,23.48
2018-05-11T13:44:04.593Z,23.87
2018-05-11T13:46:32.206Z,23.99
2018-05-11T13:48:59.853Z,24.62
2018-05-11T13:51:27.527Z,25.15
2018-05-11T13:53:55.157Z,24.72
2018-05-11T13:56:22.901Z,24.78
2018-05-11T13:58:50.527Z,24.99
2018-05-11T14:01:18.113Z,25.07
2018-05-11T14:03:45.764Z,25.51
2018-05-11T14:06:13.357Z,24.62
2018-05-11T14:08:40.997Z,23.84
2018-05-11T14:11:08.662Z,23.64
2018-05-11T14:13:36.296Z,22.83
2018-05-11T14:16:03.883Z,22.67
2018-05-11T14:18:31.505Z,22.74
2018-05-11T14:20:59.121Z,22.82
2018-05-11T14:23:26.960Z,22.89
2018-05-11T14:25:54.698Z,22.35
2018-05-11T14:28:22.500Z,22.27
2018-05-11T14:30:50.145Z,22.45
2018-05-11T14:33:17.819Z,22.66
2018-05-11T14:35:45.416Z,22.82
2018-05-11T14:38:13.043Z,23.28
2018-05-11T14:40:40.757Z,23.06
2018-05-11T14:43:08.370Z,23.11
2018-05-11T14:45:36.017Z,23.49
2018-05-11T14:48:03.627Z,23.35
2018-05-11T14:50:31.285Z,23.29
2018-05-11T14:52:58.945Z,23.33
2018-05-11T14:55:26.587Z,22.76
2018-05-11T14:57:54.221Z,22.70
2018-05-11T15:00:21.892Z,23.27
2018-05-11T15:02:49.634Z,23.85
2018-05-11T15:05:17.307Z,24.58
2018-05-11T15:07:44.999Z,24.54
2018-05-11T15:10:12.744Z,23.66
2018-05-11T15:12:40.305Z,24.15
2018-05-11T15:15:08.089Z,24.63
2018-05-11T15:17:35.701Z,24.16
2018-05-11T15:20:03.392Z,23.55
2018-05-11T15:22:31.003Z,23.44
2018-05-11T15:24:58.604Z,23.24
2018-05-11T15:27:26.237Z,23.18
2018-05-11T15:29:53.954Z,22.70
2018-05-11T15:32:21.637Z,22.45
2018-05-11T15:34:49.261Z,22.59
2018-05-11T15:37:16.918Z,22.86
2018-05-11T15:39:44.537Z,22.94
2018-05-11T15:42:12.313Z,23.73
2018-05-11T15:44:39.929Z,24.12
2018-05-11T15:47:07.590Z,23.97
2018-05-11T15:49:35.307Z,23.46
2018-05-11T15:52:02.956Z,23.42
2018-05-11T15:54:30.643Z,23.10
2018-05-11T15:56:58.303Z,22.78
2018-05-11T15:59:25.893Z,22.78
2018-05-11T16:01:53.533Z,22.55
2018-05-11T16:04:21.145Z,22.40
2018-05-11T16:06:48.789Z,22.44
2018-05-11T16:09:16.415Z,22.53
2018-05-11T16:11:44.073Z,22.32
2018-05-11T16:14:11.692Z,22.43
2018-05-11T16:16:39.387Z,22.49
2018-05-11T16:19:07.130Z,22.42
2018-05-11T16:21:34.739Z,22.58
2018-05-11T16:24:02.385Z,22.62
2018-05-11T16:26:30.038Z,22.59
2018-05-11T16:28:57.716Z,22.47
2018-05-11T16:31:25.396Z,22.41
2018-05-11T16:33:53.041Z,22.47
2018-05-11T16:36:20.701Z,22.24
2018-05-11T16:38:48.405Z,22.27
2018-05-11T16:41:16.018Z,22.17
2018-05-11T16:43:43.677Z,22.29
2018-05-11T16:46:11.281Z,22.36
2018-05-11T16:48:38.950Z,22.31
2018-05-11T16:51:06.709Z,22.20
2018-05-11T16:53:34.312Z,21.92
2018-05-11T16:56:01.906Z,21.95
2018-05-11T16:58:29.630Z,22.02
2018-05-11T17:00:57.256Z,21.98
2018-05-11T17:03:24.997Z,22.02
2018-05-11T17:05:52.633Z,22.10
2018-05-11T17:08:20.355Z,22.07
2018-05-11T17:10:48.043Z,22.02
2018-05-11T17:13:15.638Z,22.11
2018-05-11T17:15:43.269Z,22.08
2018-05-11T17:18:11.060Z,22.01
2018-05-11T17:20:38.858Z,21.89
2018-05-11T17:23:06.475Z,22.14
2018-05-11T17:25:34.165Z,21.96
2018-05-11T17:28:01.838Z,22.04
2018-05-11T17:30:29.498Z,21.96
2018-05-11T17:32:57.105Z,21.95
2018-05-11T17:35:24.752Z,22.00
2018-05-11T17:37:52.604Z,21.94
2018-05-11T17:40:20.255Z,22.12
2018-05-11T17:42:47.887Z,22.31
2018-05-11T17:45:15.530Z,22.13
2018-05-11T17:47:43.171Z,21.94
2018-05-11T17:50:10.997Z,21.72
2018-05-11T17:52:38.630Z,21.74
2018-05-11T17:55:06.359Z,21.61
2018-05-11T17:57:34.097Z,21.54
2018-05-11T18:00:01.752Z,21.54
2018-05-11T18:02:29.375Z,21.49
2018-05-11T18:04:57.020Z,21.45
2018-05-11T18:07:24.719Z,21.30
2018-05-11T18:09:52.384Z,21.28
2018-05-11T18:12:20.053Z,21.28
2018-05-11T18:14:47.688Z,21.22
2018-05-11T18:17:15.344Z,21.23
2018-05-11T18:19:43.084Z,21.19
2018-05-11T18:22:10.759Z,21.19
2018-05-11T18:24:38.526Z,21.15
2018-05-11T18:27:06.183Z,21.10
2018-05-11T18:29:33.786Z,21.11
2018-05-11T18:32:01.444Z,21.12
2018-05-11T18:34:29.049Z,21.00
2018-05-11T18:36:56.785Z,21.01
2018-05-11T18:39:24.424Z,20.91
2018-05-11T18:41:52.060Z,20.77
2018-05-11T18:44:19.698Z,20.70
2018-05-11T18:46:47.421Z,20.71
2018-05-11T18:49:15.029Z,20.61
2018-05-11T18:51:42.737Z,20.59
2018-05-11T18:54:10.630Z,20.54
2018-05-11T18:56:37.996Z,20.54
2018-05-11T18:59:05.597Z,20.44
2018-05-11T19:01:33.297Z,20.45
2018-05-11T19:04:00.893Z,20.41
2018-05-11T19:06:28.497Z,20.24
2018-05-11T19:08:56.316Z,20.12
2018-05-11T19:11:23.859Z,20.02
2018-05-11T19:13:51.529Z,20.01
2018-05-11T19:16:19.116Z,19.99
2018-05-11T19:18:46.775Z,20.01
2018-05-11T19:21:14.536Z,20.03
2018-05-11T19:23:42.171Z,20.13
2018-05-11T19:26:09.801Z,20.25
2018-05-11T19:28:37.533Z,20.24
2018-05-11T19:31:05.177Z,20.14
2018-05-11T19:33:32.864Z,20.14
2018-05-11T19:36:00.490Z,20.00
2018-05-11T19:38:28.173Z,20.03
2018-05-11T19:40:55.847Z,20.04
2018-05-11T19:43:23.458Z,20.17
2018-05-11T19:45:51.244Z,20.23
2018-05-11T19:48:18.862Z,20.10
2018-05-11T19:50:46.704Z,19.99
2018-05-11T19:53:14.374Z,19.75
2018-05-11T19:55:42.229Z,19.75
2018-05-11T19:58:09.835Z,19.84
2018-05-11T20:00:37.512Z,19.90
2018-05-11T20:03:05.115Z,19.92
2018-05-11T20:05:32.789Z,19.81
2018-05-11T20:08:00.398Z,19.79
2018-05-11T20:10:28.053Z,19.73
2018-05-11T20:12:55.670Z,19.56
2018-05-11T20:15:23.319Z,19.62
2018-05-11T20:17:50.955Z,19.53
2018-05-11T20:20:18.837Z,19.54
2018-05-11T20:22:46.453Z,19.55
2018-05-11T20:25:14.078Z,19.59
2018-05-11T20:27:41.735Z,19.62
2018-05-11T20:30:09.338Z,19.73
2018-05-11T20:32:37.010Z,19.69
2018-05-11T20:35:04.660Z,19.56
2018-05-11T20:37:32.363Z,19.66
2018-05-11T20:40:00.081Z,19.65
2018-05-11T20:42:27.730Z,19.72
2018-05-11T20:44:55.381Z,19.80
2018-05-11T20:47:23.093Z,19.64
2018-05-11T20:49:50.729Z,19.66
2018-05-11T20:52:18.368Z,19.79
2018-05-11T20:54:46.021Z,19.91
2018-05-11T20:57:13.710Z,19.99
2018-05-11T20:59:41.321Z,20.05
2018-05-11T21:02:08.972Z,20.00
2018-05-11T21:04:36.693Z,19.89
2018-05-11T21:07:04.351Z,19.70
2018-05-11T21:09:32.001Z,19.61
2018-05-11T21:11:59.608Z,19.64
2018-05-11T21:14:27.278Z,19.65
2018-05-11T21:16:54.889Z,19.48
2018-05-11T21:19:22.561Z,19.30
2018-05-11T21:21:50.377Z,19.23
2018-05-11T21:24:18.028Z,19.16
2018-05-11T21:26:45.639Z,19.18
2018-05-11T21:29:13.270Z,19.21
2018-05-11T21:31:41.005Z,19.26
2018-05-11T21:34:08.882Z,19.22
2018-05-11T21:36:37.007Z,19.26
2018-05-11T21:39:04.647Z,19.24
2018-05-11T21:41:32.373Z,19.26
2018-05-11T21:44:00.018Z,19.23
2018-05-11T21:46:27.659Z,19.13
2018-05-11T21:48:55.298Z,19.20
2018-05-11T21:51:23.001Z,19.43
2018-05-11T21:53:50.693Z,19.61
2018-05-11T21:56:18.328Z,19.57
2018-05-11T21:58:45.943Z,19.29
2018-05-11T22:01:13.605Z,19.06
2018-05-11T22:03:41.234Z,18.88
2018-05-11T22:06:08.947Z,18.78
2018-05-11T22:08:36.561Z,18.51
2018-05-11T22:11:04.231Z,18.41
2018-05-11T22:13:31.894Z,18.25
2018-05-11T22:15:59.514Z,18.12
2018-05-11T22:18:27.134Z,18.08
2018-05-11T22:20:54.770Z,18.07
2018-05-11T22:23:22.357Z,18.05
2018-05-11T22:25:50.015Z,18.11
2018-05-11T22:28:17.734Z,17.94
2018-05-11T22:30:46.919Z,17.84
2018-05-11T22:33:16.455Z,17.80
2018-05-11T22:35:44.180Z,17.63
2018-05-11T22:38:11.953Z,17.52
2018-05-11T22:40:39.670Z,17.43
2018-05-11T22:43:07.996Z,17.29
2018-05-11T22:45:37.127Z,17.25
2018-05-11T22:48:06.147Z,17.14
2018-05-11T22:50:36.456Z,17.07
2018-05-11T22:53:04.126Z,17.10
2018-05-11T22:55:32.207Z,17.01
2018-05-11T22:58:00.288Z,17.10
2018-05-11T23:00:46.829Z,17.02
2018-05-11T23:03:14.524Z,17.04
2018-05-11T23:05:54.563Z,17.12
2018-05-11T23:08:26.256Z,17.23
2018-05-11T23:10:55.291Z,17.23
2018-05-11T23:13:22.975Z,17.25
2018-05-11T23:15:50.941Z,17.23
2018-05-11T23:18:22.375Z,17.19
2018-05-11T23:20:51.425Z,17.18
2018-05-11T23:23:21.879Z,17.13
2018-05-11T23:25:51.029Z,17.13
2018-05-11T23:28:20.068Z,17.17
2018-05-11T23:30:49.079Z,17.22
2018-05-11T23:33:18.757Z,17.25
2018-05-11T23:35:46.828Z,17.25
2018-05-11T23:38:14.678Z,17.33
2018-05-11T23:40:43.128Z,17.32
2018-05-11T23:43:11.245Z,17.32
2018-05-11T23:45:40.943Z,17.31
2018-05-11T23:48:09.926Z,17.30
2018-05-11T23:50:37.901Z,17.26
2018-05-11T23:53:14.785Z,17.20
2018-05-11T23:58:37.221Z,16.86
